Time;durP1;ratioP1;P1;durP2;ratioP2;P2;SDS_P1;SDS_P2;PMS_P1;PMS_P2;Temp;Humidity;BMP_temperature;BMP_pressure;BME280_temperature;BME280_humidity;BME280_pressure;Samples;Min_cycle;Max_cycle;Signal;HPM_P1;HPM_P2
2021/04/25 00:01:22;;;;;;;7.70;4.47;;;7.90;52.20;;;;;;4999410;28;20418;-90
2021/04/25 00:03:59;;;;;;;5.83;4.63;;;9.50;53.30;;;;;;4982103;28;20193;-89
2021/04/25 00:06:31;;;;;;;5.82;5.32;;;6.70;49.80;;;;;;4967102;28;20413;-90
2021/04/25 00:08:57;;;;;;;5.00;4.50;;;7.90;50.70;;;;;;4962271;28;20183;-91
2021/04/25 00:11:26;;;;;;;7.73;5.13;;;;;;;;;;4980252;28;20173;-90
2021/04/25 00:14:13;;;;;;;5.30;4.80;;;6.70;49.90;;;;;;4979751;28;20178;-90
2021/04/25 00:16:42;;;;;;;6.65;5.70;;;7.70;52.00;;;;;;4966782;28;20712;-90
2021/04/25 00:19:10;;;;;;;5.47;5.15;;;6.80;51.90;;;;;;4965955;28;20237;-90
2021/04/25 00:21:36;;;;;;;7.43;5.20;;;8.50;52.60;;;;;;4975828;28;20178;-90
2021/04/25 00:24:12;;;;;;;5.90;5.40;;;7.10;52.70;;;;;;4996490;28;20272;-89
2021/04/25 00:26:38;;;;;;;8.35;5.03;;;6.40;51.20;;;;;;4964794;28;20180;-90
2021/04/25 00:29:05;;;;;;;5.87;4.90;;;5.90;52.70;;;;;;4979068;28;20177;-90
2021/04/25 00:31:34;;;;;;;8.80;6.07;;;6.90;52.60;;;;;;4977373;28;20174;-90
2021/04/25 00:34:01;;;;;;;5.05;3.97;;;6.60;51.80;;;;;;4962612;28;20786;-90
2021/04/25 00:36:27;;;;;;;5.40;4.90;;;8.00;52.60;;;;;;4973687;28;20751;-90
2021/04/25 00:38:58;;;;;;;6.03;5.05;;;7.70;53.30;;;;;;4991646;28;20569;-91
2021/04/25 00:41:23;;;;;;;9.45;5.50;;;6.80;52.30;;;;;;4971108;29;20226;-91
2021/04/25 00:43:49;;;;;;;5.47;5.00;;;;;;;;;;4969472;28;20738;-90
2021/04/25 00:46:15;;;;;;;5.87;5.37;;;6.60;50.40;;;;;;4973325;28;20174;-91
2021/04/25 00:48:41;;;;;;;7.90;4.97;;;5.50;51.10;;;;;;4974429;28;20428;-90
2021/04/25 00:51:11;;;;;;;5.80;5.03;;;6.60;50.60;;;;;;4973362;28;20184;-90
2021/04/25 00:53:37;;;;;;;7.57;5.20;;;8.60;52.80;;;;;;4955955;28;20189;-90
2021/04/25 00:56:10;;;;;;;6.47;5.78;;;6.20;53.20;;;;;;4973830;28;20174;-91
2021/04/25 00:58:36;;;;;;;6.20;5.15;;;6.20;50.80;;;;;;4992675;28;20222;-90
2021/04/25 01:01:02;;;;;;;6.35;5.18;;;9.70;54.10;;;;;;4974352;28;20181;-90
2021/04/25 01:03:34;;;;;;;6.07;5.50;;;6.80;52.70;;;;;;4975769;28;20173;-90
2021/04/25 01:06:05;;;;;;;7.43;5.43;;;6.90;54.30;;;;;;4994514;28;20401;-90
2021/04/25 01:08:31;;;;;;;10.27;6.32;;;8.50;53.50;;;;;;4991415;28;20190;-90
2021/04/25 01:10:58;;;;;;;6.20;5.63;;;;;;;;;;4978826;28;20177;-90
2021/04/25 01:13:25;;;;;;;8.77;5.25;;;6.40;51.30;;;;;;4993366;28;20182;-90
2021/04/25 01:15:51;;;;;;;13.00;6.38;;;6.50;54.50;;;;;;4973953;28;20167;-90
2021/04/25 01:18:18;;;;;;;9.10;6.33;;;6.60;54.70;;;;;;4976819;28;20213;-90
2021/04/25 01:20:44;;;;;;;6.15;5.55;;;6.00;51.90;;;;;;4974595;28;20227;-90
2021/04/25 01:23:10;;;;;;;5.97;5.53;;;6.60;55.00;;;;;;4975050;28;20182;-90
2021/04/25 01:25:36;;;;;;;6.20;5.30;;;8.30;54.90;;;;;;4961819;28;20187;-90
2021/04/25 01:28:02;;;;;;;5.90;5.47;;;6.50;54.80;;;;;;4977353;28;20264;-90
2021/04/25 01:30:34;;;;;;;8.05;7.00;;;6.40;53.50;;;;;;4976580;28;20186;-91
2021/04/25 01:33:00;;;;;;;7.00;5.53;;;6.50;53.60;;;;;;4974425;28;20170;-90
2021/04/25 01:35:26;;;;;;;6.00;4.97;;;8.00;55.50;;;;;;4973665;28;20177;-89
2021/04/25 01:37:56;;;;;;;7.10;5.80;;;8.60;55.00;;;;;;4991786;28;20206;-90
2021/04/25 01:40:27;;;;;;;9.90;5.65;;;6.30;52.60;;;;;;4992634;28;20190;-91
2021/04/25 01:43:02;;;;;;;7.03;5.13;;;6.10;53.60;;;;;;4974348;28;20186;-91
2021/04/25 01:45:33;;;;;;;6.22;5.57;;;6.00;54.10;;;;;;4975723;28;20932;-90
2021/04/25 01:48:02;;;;;;;6.43;5.57;;;6.60;53.50;;;;;;4960823;28;20178;-91
2021/04/25 01:50:29;;;;;;;6.32;5.47;;;5.80;53.50;;;;;;4992182;28;20164;-90
2021/04/25 01:52:59;;;;;;;6.32;5.55;;;5.80;55.90;;;;;;4990966;28;20516;-91
2021/04/25 01:55:27;;;;;;;7.65;5.57;;;6.20;53.30;;;;;;4973453;28;20247;-91
2021/04/25 01:57:59;;;;;;;6.53;5.90;;;8.20;55.00;;;;;;4988252;28;20209;-91
2021/04/25 02:00:34;;;;;;;8.63;5.72;;;6.30;53.60;;;;;;4972970;28;20166;-91
2021/04/25 02:03:02;;;;;;;6.63;5.97;;;5.90;53.80;;;;;;4972566;28;20178;-91
2021/04/25 02:05:28;;;;;;;7.68;5.25;;;6.40;54.20;;;;;;4972183;28;20257;-91
2021/04/25 02:07:53;;;;;;;6.83;5.77;;;5.70;54.60;;;;;;4971589;28;20178;-90
2021/04/25 02:10:20;;;;;;;7.90;6.60;;;5.80;53.30;;;;;;4991472;28;20400;-91
2021/04/25 02:12:49;;;;;;;6.32;5.50;;;5.80;53.60;;;;;;4971450;28;20456;-90
2021/04/25 02:15:16;;;;;;;7.00;6.30;;;5.70;53.70;;;;;;4971895;28;20262;-90
2021/04/25 02:17:43;;;;;;;7.05;5.85;;;5.50;54.30;;;;;;4972433;28;20214;-90
2021/04/25 02:20:11;;;;;;;10.48;6.35;;;5.40;55.30;;;;;;4972059;28;20173;-90
2021/04/25 02:22:37;;;;;;;7.43;5.40;;;5.50;54.20;;;;;;4973059;28;20170;-90
2021/04/25 02:25:05;;;;;;;6.63;6.07;;;7.10;56.20;;;;;;4970720;28;20212;-89
2021/04/25 02:27:32;;;;;;;7.80;5.68;;;5.60;54.80;;;;;;4955534;28;20282;-90
2021/04/25 02:29:58;;;;;;;9.73;5.45;;;6.60;54.50;;;;;;4970818;28;20177;-91
2021/04/25 02:32:25;;;;;;;6.50;5.90;;;6.80;56.20;;;;;;4971393;28;20178;-90
2021/04/25 02:34:51;;;;;;;9.18;7.38;;;6.90;57.20;;;;;;4953449;28;20170;-90
2021/04/25 02:37:24;;;;;;;9.93;5.57;;;6.00;56.40;;;;;;4972036;28;20178;-86
2021/04/25 02:39:49;;;;;;;8.07;5.93;;;7.80;56.00;;;;;;4955354;28;20174;-90
2021/04/25 02:42:15;;;;;;;8.47;5.87;;;4.40;54.60;;;;;;4952771;28;20312;-90
2021/04/25 02:44:41;;;;;;;7.50;6.50;;;;;;;;;;4971844;28;20237;-89
2021/04/25 02:47:07;;;;;;;10.90;5.57;;;5.80;53.20;;;;;;4969509;28;20202;-90
2021/04/25 02:49:33;;;;;;;9.20;5.90;;;;;;;;;;4972391;28;20181;-89
2021/04/25 02:52:02;;;;;;;6.15;5.55;;;5.70;53.30;;;;;;4993075;28;20173;-89
2021/04/25 02:54:29;;;;;;;6.35;5.70;;;5.70;53.50;;;;;;4973596;28;20180;-89
2021/04/25 02:57:17;;;;;;;8.85;5.88;;;7.90;56.40;;;;;;4976455;28;20216;-90
2021/04/25 02:59:43;;;;;;;9.60;7.47;;;8.30;56.10;;;;;;4952898;28;20245;-89
2021/04/25 03:02:09;;;;;;;8.80;6.60;;;;;;;;;;4955871;28;20178;-90
2021/04/25 03:04:34;;;;;;;8.55;6.47;;;5.80;53.40;;;;;;4974231;28;20197;-91
2021/04/25 03:07:00;;;;;;;11.10;6.00;;;;;;;;;;4961678;28;20200;-91
2021/04/25 03:09:27;;;;;;;7.32;6.00;;;5.80;53.20;;;;;;4973551;28;20225;-91
2021/04/25 03:11:59;;;;;;;8.75;5.93;;;8.00;56.20;;;;;;4959934;28;20205;-90
2021/04/25 03:14:25;;;;;;;10.27;6.65;;;6.20;54.00;;;;;;4974692;28;20173;-91
2021/04/25 03:16:51;;;;;;;8.10;5.33;;;5.40;55.00;;;;;;4975154;28;20174;-91
2021/04/25 03:19:18;;;;;;;8.33;6.23;;;7.70;58.20;;;;;;4974184;28;20276;-91
2021/04/25 03:21:43;;;;;;;9.82;6.75;;;6.70;55.00;;;;;;4973696;28;20451;-90
2021/04/25 03:24:20;;;;;;;8.43;6.10;;;6.90;55.10;;;;;;4976408;28;20205;-90
2021/04/25 03:26:55;;;;;;;10.43;6.90;;;7.30;55.20;;;;;;4995126;28;20166;-91
2021/04/25 03:29:23;;;;;;;10.73;5.85;;;6.50;54.20;;;;;;4977251;28;20212;-90
2021/04/25 03:31:52;;;;;;;6.28;5.65;;;4.10;53.70;;;;;;4980698;28;20626;-89
2021/04/25 03:34:20;;;;;;;14.93;7.47;;;6.00;53.80;;;;;;4994585;28;20162;-90
2021/04/25 03:36:46;;;;;;;7.80;6.10;;;;;;;;;;4976380;28;20241;-88
2021/04/25 03:39:12;;;;;;;8.70;6.38;;;5.70;53.50;;;;;;4978567;28;20224;-89
2021/04/25 03:41:38;;;;;;;8.30;7.10;;;7.50;56.30;;;;;;4981472;28;20292;-89
2021/04/25 03:44:08;;;;;;;13.40;6.27;;;7.10;56.70;;;;;;4978231;28;20638;-88
2021/04/25 03:46:35;;;;;;;6.82;5.47;;;6.00;54.90;;;;;;4979729;28;20230;-90
2021/04/25 03:49:01;;;;;;;17.00;7.47;;;;;;;;;;4979464;28;20170;-90
2021/04/25 03:51:26;;;;;;;8.45;6.43;;;5.70;53.50;;;;;;4980993;28;20194;-89
2021/04/25 03:53:52;;;;;;;10.90;6.10;;;4.30;54.20;;;;;;4980031;28;20173;-90
2021/04/25 03:56:18;;;;;;;9.23;6.60;;;7.70;57.00;;;;;;4961758;28;20198;-90
2021/04/25 03:58:44;;;;;;;7.03;6.30;;;6.60;55.50;;;;;;4974776;28;20692;-90
2021/04/25 04:01:12;;;;;;;11.38;6.70;;;5.90;56.40;;;;;;4989737;28;20178;-90
2021/04/25 04:03:37;;;;;;;12.10;7.07;;;7.00;56.30;;;;;;4976680;28;20193;-90
2021/04/25 04:06:05;;;;;;;10.70;7.00;;;6.50;56.10;;;;;;4992098;28;20190;-90
2021/04/25 04:08:32;;;;;;;12.25;7.80;;;5.90;54.80;;;;;;4988827;28;20190;-90
2021/04/25 04:11:04;;;;;;;8.00;7.20;;;5.00;53.50;;;;;;4973438;28;20237;-89
2021/04/25 04:13:35;;;;;;;9.55;7.57;;;6.10;55.40;;;;;;4974421;28;20178;-90
2021/04/25 04:16:02;;;;;;;8.75;7.30;;;5.90;56.40;;;;;;4978222;28;20170;-91
2021/04/25 04:18:28;;;;;;;10.63;6.60;;;6.70;56.40;;;;;;4960837;28;20217;-91
2021/04/25 04:20:56;;;;;;;9.83;8.10;;;7.00;56.60;;;;;;4975716;28;20173;-90
2021/04/25 04:23:25;;;;;;;9.43;7.80;;;8.30;58.30;;;;;;4979737;28;20174;-89
2021/04/25 04:26:00;;;;;;;9.93;6.75;;;7.20;56.20;;;;;;4992971;28;20189;-90
2021/04/25 04:28:30;;;;;;;9.90;6.03;;;7.30;55.90;;;;;;4978194;28;20182;-90
2021/04/25 04:30:58;;;;;;;17.75;7.35;;;5.90;55.30;;;;;;4976419;28;20201;-91
2021/04/25 04:33:24;;;;;;;10.20;7.10;;;6.30;56.60;;;;;;4976231;28;20205;-90
2021/04/25 04:35:50;;;;;;;13.10;7.57;;;5.90;57.30;;;;;;4974969;28;20196;-90
2021/04/25 04:38:17;;;;;;;10.47;7.27;;;7.90;57.50;;;;;;4988823;28;20213;-90
2021/04/25 04:40:43;;;;;;;14.52;7.60;;;6.20;56.40;;;;;;4972633;28;20201;-90
2021/04/25 04:43:08;;;;;;;11.03;7.47;;;5.70;55.90;;;;;;4975570;28;20177;-89
2021/04/25 04:45:42;;;;;;;10.77;7.53;;;8.40;58.40;;;;;;4979911;28;20178;-90
2021/04/25 04:48:21;;;;;;;11.77;7.72;;;6.50;55.00;;;;;;4978843;28;20182;-89
2021/04/25 04:50:49;;;;;;;11.45;8.05;;;6.20;53.90;;;;;;4964513;28;20189;-89
2021/04/25 04:53:23;;;;;;;10.52;7.65;;;6.00;53.80;;;;;;4966014;28;20189;-90
2021/04/25 04:55:50;;;;;;;9.23;7.30;;;6.00;54.10;;;;;;4990997;28;20696;-90
2021/04/25 04:58:22;;;;;;;9.80;7.22;;;5.50;54.40;;;;;;4979191;28;20213;-90
2021/04/25 05:00:48;;;;;;;8.20;7.32;;;6.10;54.10;;;;;;4980663;28;20154;-88
2021/04/25 05:03:15;;;;;;;9.40;7.20;;;8.10;56.80;;;;;;4984351;28;20218;-89
2021/04/25 05:05:44;;;;;;;16.73;7.50;;;8.50;55.30;;;;;;4984078;28;20468;-89
2021/04/25 05:08:09;;;;;;;10.43;6.60;;;6.30;53.70;;;;;;4983075;28;20181;-89
2021/04/25 05:10:35;;;;;;;13.17;7.10;;;5.40;53.80;;;;;;4976559;28;20177;-90
2021/04/25 05:13:01;;;;;;;8.80;6.53;;;;;;;;;;4975624;28;20197;-91
2021/04/25 05:15:35;;;;;;;8.98;7.30;;;6.10;52.40;;;;;;4959112;28;20697;-90
2021/04/25 05:18:02;;;;;;;5.97;5.47;;;4.90;51.60;;;;;;4974206;28;20281;-90
2021/04/25 05:20:39;;;;;;;8.00;6.45;;;6.40;54.10;;;;;;4994487;28;20182;-89
2021/04/25 05:23:10;;;;;;;11.68;6.70;;;8.50;53.30;;;;;;4975319;28;20184;-89
2021/04/25 05:25:36;;;;;;;9.32;6.80;;;6.50;53.30;;;;;;4977071;28;20294;-90
2021/04/25 05:28:21;;;;;;;7.37;6.70;;;5.90;51.20;;;;;;4977885;28;20170;-90
2021/04/25 05:30:48;;;;;;;7.10;6.25;;;5.90;51.30;;;;;;4943383;28;20186;-90
2021/04/25 05:33:14;;;;;;;6.50;5.90;;;8.20;53.70;;;;;;4992503;28;20697;-90
2021/04/25 05:35:40;;;;;;;7.38;5.78;;;6.00;53.90;;;;;;4939136;28;20245;-91
2021/04/25 05:38:06;;;;;;;6.23;5.60;;;6.50;54.00;;;;;;4978263;28;20197;-89
2021/04/25 05:40:33;;;;;;;6.60;5.90;;;6.80;53.80;;;;;;4994633;28;20178;-90
2021/04/25 05:43:00;;;;;;;7.65;6.60;;;7.10;53.80;;;;;;4994389;28;20221;-90
2021/04/25 05:45:27;;;;;;;5.60;5.13;;;5.80;50.90;;;;;;4995055;28;20181;-91
2021/04/25 05:47:57;;;;;;;7.55;5.63;;;6.60;51.90;;;;;;4961403;28;20197;-90
2021/04/25 05:50:24;;;;;;;9.80;6.35;;;7.90;50.00;;;;;;4979738;28;20170;-90
2021/04/25 05:52:51;;;;;;;6.65;6.20;;;5.70;48.40;;;;;;4997728;28;20158;-90
2021/04/25 05:55:19;;;;;;;7.93;6.25;;;7.40;51.90;;;;;;4980132;28;20193;-90
2021/04/25 05:57:45;;;;;;;5.45;5.05;;;5.20;48.60;;;;;;4954721;28;20304;-88
2021/04/25 06:00:15;;;;;;;5.93;5.20;;;5.40;49.50;;;;;;4967412;28;20178;-89
2021/04/25 06:02:40;;;;;;;6.10;5.60;;;6.20;48.40;;;;;;4981980;28;20485;-89
2021/04/25 06:05:07;;;;;;;6.00;5.43;;;5.60;49.30;;;;;;4963462;28;20229;-88
2021/04/25 06:07:32;;;;;;;6.07;5.45;;;6.50;47.90;;;;;;4966769;28;20198;-88
2021/04/25 06:09:58;;;;;;;6.03;5.53;;;6.40;47.30;;;;;;4967278;28;20174;-88
2021/04/25 06:12:24;;;;;;;7.23;5.20;;;6.50;47.20;;;;;;4968164;28;20689;-88
2021/04/25 06:14:50;;;;;;;11.33;5.10;;;6.30;48.30;;;;;;4966414;28;20244;-88
2021/04/25 06:17:15;;;;;;;6.47;4.60;;;8.40;50.40;;;;;;4983397;28;20698;-88
2021/04/25 06:19:41;;;;;;;7.13;4.83;;;4.70;46.70;;;;;;4968122;28;20441;-88
2021/04/25 06:22:09;;;;;;;7.23;5.57;;;;;;;;;;4965546;28;20181;-88
2021/04/25 06:24:36;;;;;;;5.00;4.60;;;6.60;46.50;;;;;;4965127;28;20460;-88
2021/04/25 06:27:01;;;;;;;5.40;4.60;;;6.20;46.10;;;;;;4963928;28;20265;-88
2021/04/25 06:29:29;;;;;;;5.00;4.60;;;7.90;47.90;;;;;;4983496;28;20448;-87
2021/04/25 06:31:55;;;;;;;4.82;4.50;;;8.30;49.00;;;;;;4984306;28;20414;-89
2021/04/25 06:34:21;;;;;;;5.40;4.90;;;10.10;48.20;;;;;;4980607;28;20197;-88
2021/04/25 06:36:47;;;;;;;5.10;4.27;;;6.70;47.30;;;;;;4965196;28;20185;-86
2021/04/25 06:39:13;;;;;;;6.23;5.50;;;6.90;49.20;;;;;;4964963;28;20210;-88
2021/04/25 06:41:38;;;;;;;6.50;5.90;;;5.40;46.90;;;;;;4963192;28;20220;-88
2021/04/25 06:44:04;;;;;;;8.90;5.60;;;8.70;47.20;;;;;;4975456;28;20519;-84
2021/04/25 06:46:30;;;;;;;7.13;6.50;;;7.20;46.00;;;;;;4974248;28;20272;-85
2021/04/25 06:48:56;;;;;;;9.60;6.23;;;7.00;45.60;;;;;;4987302;28;20602;-88
2021/04/25 06:51:22;;;;;;;4.97;4.10;;;7.00;45.90;;;;;;4988745;28;20412;-88
2021/04/25 06:53:48;;;;;;;5.30;4.77;;;7.00;45.60;;;;;;4989255;28;20173;-90
2021/04/25 06:56:14;;;;;;;7.40;4.87;;;6.90;45.70;;;;;;4987897;28;20173;-89
2021/04/25 06:58:40;;;;;;;5.27;4.90;;;7.50;45.80;;;;;;4974945;28;20511;-88
2021/04/25 07:01:11;;;;;;;6.90;6.40;;;7.00;45.50;;;;;;4992396;28;20229;-89
2021/04/25 07:03:39;;;;;;;6.18;5.57;;;7.00;45.80;;;;;;4971440;28;20178;-89
2021/04/25 07:06:05;;;;;;;5.85;5.35;;;6.80;45.70;;;;;;4990357;28;20162;-89
2021/04/25 07:08:31;;;;;;;6.28;5.68;;;6.90;45.80;;;;;;4991079;28;20171;-89
2021/04/25 07:10:56;;;;;;;6.33;5.80;;;7.00;45.60;;;;;;4973268;28;20197;-88
2021/04/25 07:13:22;;;;;;;6.63;5.65;;;7.00;45.10;;;;;;4284426;28;10000649;-88
2021/04/25 07:15:49;;;;;;;7.63;5.70;;;6.70;45.60;;;;;;4981526;28;20173;-89
2021/04/25 07:18:15;;;;;;;6.60;5.80;;;9.00;47.90;;;;;;4967817;28;20219;-89
2021/04/25 07:20:41;;;;;;;6.10;5.60;;;7.50;47.30;;;;;;4981457;28;20449;-88
2021/04/25 07:23:07;;;;;;;6.40;5.33;;;8.80;45.80;;;;;;4960839;28;20417;-86
2021/04/25 07:25:33;;;;;;;7.20;4.73;;;7.70;44.00;;;;;;4964175;28;20178;-89
2021/04/25 07:27:59;;;;;;;5.40;4.90;;;7.90;43.50;;;;;;4984633;28;20412;-89
2021/04/25 07:30:26;;;;;;;4.80;4.43;;;7.40;42.30;;;;;;4982548;28;20472;-88
2021/04/25 07:32:52;;;;;;;6.33;4.23;;;7.70;43.40;;;;;;4964166;28;20178;-90
2021/04/25 07:35:17;;;;;;;5.33;4.83;;;7.70;42.80;;;;;;4968034;28;20428;-88
2021/04/25 07:37:44;;;;;;;8.30;4.30;;;7.50;42.90;;;;;;4983593;28;20469;-89
2021/04/25 07:40:11;;;;;;;4.45;4.05;;;7.70;42.40;;;;;;4985361;28;20412;-89
2021/04/25 07:42:38;;;;;;;5.87;4.37;;;7.80;42.00;;;;;;4986483;28;20226;-88
2021/04/25 07:45:12;;;;;;;4.33;4.00;;;7.90;41.70;;;;;;4962391;28;20523;-89
2021/04/25 07:47:38;;;;;;;3.37;3.17;;;8.20;41.70;;;;;;4961703;28;20433;-85
2021/04/25 07:50:05;;;;;;;6.23;4.23;;;8.10;40.50;;;;;;4985287;28;20485;-87
2021/04/25 07:55:21;;;;;;;4.10;3.90;;;8.30;39.80;;;;;;4974797;28;20489;-90
2021/04/25 07:57:50;;;;;;;4.40;4.00;;;9.80;43.90;;;;;;4982450;28;20201;-90
2021/04/25 08:00:16;;;;;;;3.83;3.53;;;9.10;39.80;;;;;;4994749;28;20221;-90
2021/04/25 08:02:42;;;;;;;4.77;4.03;;;9.60;40.70;;;;;;4980254;28;20440;-90
2021/04/25 08:05:11;;;;;;;4.90;3.80;;;10.80;36.90;;;;;;4998930;28;20445;-88
2021/04/25 08:07:47;;;;;;;5.07;4.60;;;11.00;34.20;;;;;;4982886;28;20246;-90
2021/04/25 08:13:07;;;;;;;5.00;4.70;;;11.50;33.10;;;;;;5271059;22;20488;-91
2021/04/25 08:15:37;;;;;;;4.40;3.70;;;11.40;35.00;;;;;;4996846;28;20477;-85
2021/04/25 08:18:04;;;;;;;5.20;4.20;;;14.30;34.80;;;;;;4979978;28;20477;-86
2021/04/25 08:20:55;;;;;;;4.10;3.70;;;13.20;33.80;;;;;;4978207;28;20408;-91
2021/04/25 08:23:36;;;;;;;7.97;4.10;;;14.00;31.90;;;;;;4977459;28;20423;-89
2021/04/25 08:26:07;;;;;;;10.97;4.93;;;13.60;32.00;;;;;;4973203;28;20449;-89
2021/04/25 08:28:38;;;;;;;3.97;3.80;;;14.40;34.00;;;;;;4974593;28;20517;-89
2021/04/25 08:31:04;;;;;;;3.70;3.60;;;14.50;30.80;;;;;;4989760;28;20508;-89
2021/04/25 08:33:34;;;;;;;3.67;3.37;;;13.70;29.00;;;;;;4995607;28;20404;-89
2021/04/25 08:36:18;;;;;;;3.40;3.10;;;15.40;29.30;;;;;;4976719;28;20186;-89
2021/04/25 08:38:55;;;;;;;4.30;3.90;;;15.20;30.40;;;;;;4979805;28;20536;-89
2021/04/25 08:41:23;;;;;;;3.03;2.87;;;14.60;31.50;;;;;;4981752;28;20421;-89
2021/04/25 08:43:49;;;;;;;10.67;3.97;;;14.00;30.00;;;;;;5177233;23;21072;-86
2021/04/25 08:46:18;;;;;;;4.57;3.53;;;14.60;30.70;;;;;;4977607;28;20486;-85
2021/04/25 08:49:34;;;;;;;5.70;2.60;;;13.30;29.80;;;;;;4988466;28;20452;-89
2021/04/25 08:52:34;;;;;;;3.90;3.47;;;13.70;29.80;;;;;;4983717;28;20433;-88
2021/04/25 08:55:18;;;;;;;3.10;3.03;;;14.70;29.40;;;;;;4980237;28;20522;-90
2021/04/25 08:57:44;;;;;;;4.10;3.80;;;15.50;27.90;;;;;;4997570;28;20461;-88
2021/04/25 09:00:13;;;;;;;5.00;3.60;;;15.30;28.20;;;;;;4981102;28;20448;-88
2021/04/25 09:02:56;;;;;;;3.60;3.40;;;15.70;27.90;;;;;;4996163;28;20413;-88
2021/04/25 09:05:36;;;;;;;5.37;3.70;;;15.60;27.90;;;;;;4991742;28;20434;-89
2021/04/25 09:08:16;;;;;;;5.20;4.07;;;15.50;28.60;;;;;;4998350;28;20432;-88
2021/04/25 09:11:07;;;;;;;5.60;3.50;;;14.00;28.20;;;;;;4998843;28;20409;-86
2021/04/25 09:16:29;;;;;;;4.37;3.13;;;14.30;28.50;;;;;;5238383;23;20483;-87
2021/04/25 09:18:55;;;;;;;3.60;3.40;;;14.90;28.90;;;;;;4980172;28;20472;-88
2021/04/25 09:21:26;;;;;;;3.37;3.23;;;17.20;29.70;;;;;;4981326;28;20430;-86
2021/04/25 09:24:17;;;;;;;4.17;3.40;;;16.30;28.30;;;;;;4979393;28;20465;-88
2021/04/25 09:27:12;;;;;;;5.13;4.63;;;16.70;28.00;;;;;;4997732;28;20425;-89
2021/04/25 09:32:40;;;;;;;4.10;3.80;;;17.00;27.20;;;;;;5064752;22;20980;-91
2021/04/25 09:35:21;;;;;;;5.80;3.77;;;17.70;27.90;;;;;;4980763;28;20413;-87
2021/04/25 09:37:48;;;;;;;4.37;3.93;;;17.50;26.50;;;;;;4958739;28;20570;-87
2021/04/25 09:40:24;;;;;;;4.50;4.10;;;16.90;26.80;;;;;;4967019;28;20445;-88
2021/04/25 09:43:09;;;;;;;4.50;4.10;;;17.20;26.90;;;;;;5117423;23;20472;-89
2021/04/25 09:54:02;;;;;;;4.10;3.83;;;17.30;27.30;;;;;;5154528;22;20480;-89
2021/04/25 09:56:41;;;;;;;3.60;3.30;;;18.00;27.50;;;;;;5594022;23;20508;-89
2021/04/25 10:02:08;;;;;;;4.03;3.83;;;19.30;25.80;;;;;;5848818;22;21170;-88
2021/04/25 10:10:16;;;;;;;3.90;3.67;;;20.60;25.40;;;;;;5279390;22;20498;-88
2021/04/25 10:12:46;;;;;;;4.60;3.60;;;18.90;25.70;;;;;;4981022;28;20425;-88
2021/04/25 10:15:13;;;;;;;4.57;3.87;;;18.70;26.30;;;;;;4960680;28;20481;-89
2021/04/25 10:17:46;;;;;;;6.73;4.90;;;19.30;26.30;;;;;;4962149;28;20476;-90
2021/04/25 10:20:14;;;;;;;4.13;3.93;;;19.80;25.70;;;;;;4964694;28;20433;-90
2021/04/25 10:22:47;;;;;;;3.93;3.83;;;19.90;25.70;;;;;;4963002;28;20421;-90
2021/04/25 10:25:30;;;;;;;16.23;10.40;;;21.20;26.60;;;;;;4962064;28;20433;-87
2021/04/25 10:28:00;;;;;;;4.00;3.70;;;19.70;26.20;;;;;;4961751;28;20465;-90
2021/04/25 10:30:33;;;;;;;31.93;17.00;;;19.00;25.90;;;;;;4979790;28;20968;-89
2021/04/25 10:32:58;;;;;;;4.40;4.03;;;19.30;26.50;;;;;;4962846;28;20441;-90
2021/04/25 10:35:28;;;;;;;5.03;3.93;;;20.10;26.90;;;;;;4965347;28;20527;-89
2021/04/25 10:37:54;;;;;;;5.30;4.90;;;19.40;25.60;;;;;;4956682;28;20456;-87
2021/04/25 10:40:23;;;;;;;7.80;5.33;;;20.30;26.40;;;;;;4966468;28;20453;-87
2021/04/25 10:42:57;;;;;;;5.77;5.30;;;19.00;25.80;;;;;;4968428;28;20464;-87
2021/04/25 10:45:31;;;;;;;6.77;5.17;;;18.20;25.90;;;;;;4986697;28;20754;-89
2021/04/25 10:48:24;;;;;;;5.10;4.80;;;18.20;26.20;;;;;;4982005;28;20424;-90
2021/04/25 10:50:53;;;;;;;4.50;4.20;;;18.60;26.00;;;;;;4970041;28;20441;-88
2021/04/25 10:53:25;;;;;;;5.80;5.40;;;19.30;26.30;;;;;;4981512;28;20480;-87
2021/04/25 10:56:13;;;;;;;9.53;7.17;;;19.60;25.20;;;;;;4989428;28;20421;-89
2021/04/25 10:59:22;;;;;;;5.57;5.03;;;19.30;25.60;;;;;;4967737;28;20930;-92
2021/04/25 11:01:49;;;;;;;4.40;4.27;;;19.80;25.40;;;;;;4970914;28;20887;-92
2021/04/25 11:04:53;;;;;;;5.57;5.07;;;20.70;26.10;;;;;;4989234;28;20428;-92
2021/04/25 11:07:41;;;;;;;4.50;4.20;;;22.10;25.00;;;;;;4988312;28;20480;-88
2021/04/25 11:10:10;;;;;;;4.90;4.60;;;21.40;25.50;;;;;;4972328;28;20539;-91
2021/04/25 11:12:38;;;;;;;5.00;4.80;;;20.60;25.10;;;;;;4969918;28;20520;-88
2021/04/25 11:15:05;;;;;;;7.30;6.80;;;21.70;26.80;;;;;;4989132;28;20405;-90
2021/04/25 11:17:32;;;;;;;4.70;4.40;;;19.30;25.40;;;;;;4948564;28;20433;-89
2021/04/25 11:19:58;;;;;;;4.67;4.37;;;20.50;26.00;;;;;;4984838;28;20422;-89
2021/04/25 11:22:44;;;;;;;5.77;4.70;;;20.90;25.90;;;;;;4986926;28;20455;-90
2021/04/25 11:25:36;;;;;;;8.30;5.47;;;20.20;24.90;;;;;;5005673;28;20429;-91
2021/04/25 11:29:16;;;;;;;4.00;3.83;;;20.80;25.80;;;;;;4993518;28;20405;-88
2021/04/25 11:31:55;;;;;;;4.23;3.83;;;20.60;25.50;;;;;;4994756;28;20413;-89
2021/04/25 11:34:33;;;;;;;6.73;4.67;;;22.10;26.30;;;;;;4992242;28;20528;-92
2021/04/25 11:37:26;;;;;;;6.00;4.70;;;22.00;26.40;;;;;;4976429;28;20414;-92
2021/04/25 11:40:07;;;;;;;4.93;4.63;;;19.90;25.20;;;;;;4997958;28;20406;-88
2021/04/25 11:42:50;;;;;;;5.57;5.07;;;19.50;25.50;;;;;;4978711;28;20437;-89
2021/04/25 11:45:32;;;;;;;7.93;4.60;;;19.60;26.00;;;;;;4648492;28;10000092;-92
2021/04/25 11:48:09;;;;;;;5.47;5.10;;;19.40;27.10;;;;;;4983179;28;20171;-89
2021/04/25 11:50:41;;;;;;;5.20;4.70;;;20.60;26.10;;;;;;4974877;28;20425;-89
2021/04/25 11:53:10;;;;;;;5.37;4.97;;;22.10;26.00;;;;;;5095730;23;20532;-88
2021/04/25 11:58:24;;;;;;;4.77;4.57;;;21.60;24.70;;;;;;5018650;22;20492;-90
2021/04/25 12:00:52;;;;;;;4.90;4.50;;;20.30;26.30;;;;;;4979217;28;20441;-88
2021/04/25 12:03:31;;;;;;;4.90;4.50;;;20.80;25.80;;;;;;4979817;28;20158;-90
2021/04/25 12:06:32;;;;;;;8.93;8.13;;;21.30;25.40;;;;;;4995875;28;20499;-89
2021/04/25 12:09:00;;;;;;;6.53;6.17;;;19.70;25.50;;;;;;5253963;22;20477;-88
2021/04/25 12:11:29;;;;;;;4.27;3.87;;;21.70;26.30;;;;;;4980054;28;20417;-90
2021/04/25 12:13:57;;;;;;;6.17;5.40;;;20.70;26.40;;;;;;4996136;28;20425;-89
2021/04/25 12:16:26;;;;;;;8.90;5.67;;;20.90;25.10;;;;;;4995918;28;20448;-89
2021/04/25 12:18:55;;;;;;;4.50;4.20;;;21.70;24.80;;;;;;4977146;28;20477;-91
2021/04/25 12:21:30;;;;;;;5.40;4.90;;;20.80;24.80;;;;;;4978466;28;20417;-91
2021/04/25 12:23:58;;;;;;;6.00;5.53;;;20.50;25.80;;;;;;4978423;28;20457;-90
2021/04/25 12:26:25;;;;;;;4.50;4.30;;;20.50;26.10;;;;;;4996412;28;20410;-92
2021/04/25 12:28:58;;;;;;;5.13;4.60;;;22.10;25.90;;;;;;4996440;28;20409;-90
2021/04/25 12:31:39;;;;;;;6.10;4.87;;;22.70;25.20;;;;;;4994374;28;20413;-88
2021/04/25 12:34:13;;;;;;;5.50;5.00;;;21.80;25.00;;;;;;4995798;28;20444;-89
2021/04/25 12:36:52;;;;;;;5.63;5.00;;;21.90;24.90;;;;;;4978037;28;20436;-92
2021/04/25 12:39:21;;;;;;;5.37;5.10;;;21.50;25.50;;;;;;4961909;28;20472;-90
2021/04/25 12:41:56;;;;;;;5.60;5.20;;;21.00;24.90;;;;;;4993100;28;20421;-88
2021/04/25 12:47:40;;;;;;;6.07;5.47;;;21.10;24.50;;;;;;5017660;23;20564;-92
2021/04/25 12:50:20;;;;;;;5.30;4.90;;;21.00;24.80;;;;;;5223948;22;20485;-91
2021/04/25 12:52:58;;;;;;;6.03;5.53;;;21.70;24.60;;;;;;5076015;22;20489;-90
2021/04/25 12:55:36;;;;;;;6.00;5.40;;;21.00;26.20;;;;;;4978686;28;20428;-92
2021/04/25 12:58:08;;;;;;;5.20;4.90;;;19.50;25.90;;;;;;4977466;28;20531;-89
2021/04/25 13:00:33;;;;;;;5.17;4.87;;;20.10;25.40;;;;;;4981958;28;20453;-85
2021/04/25 13:02:59;;;;;;;4.90;4.60;;;21.30;25.20;;;;;;4974853;28;20508;-83
2021/04/25 13:05:24;;;;;;;5.13;4.93;;;22.00;25.10;;;;;;4976394;28;20323;-81
2021/04/25 13:07:50;;;;;;;6.03;5.50;;;21.80;24.80;;;;;;4975637;28;20198;-83
2021/04/25 13:10:31;;;;;;;8.77;5.57;;;20.60;24.70;;;;;;4975613;28;20174;-84
2021/04/25 13:12:59;;;;;;;4.90;4.47;;;22.70;25.80;;;;;;4975066;28;20665;-82
2021/04/25 13:15:31;;;;;;;4.43;4.30;;;21.40;24.80;;;;;;4974925;28;20414;-84
2021/04/25 13:18:14;;;;;;;5.40;5.17;;;22.20;24.50;;;;;;4974506;28;20473;-83
2021/04/25 13:20:41;;;;;;;4.50;4.30;;;22.50;24.10;;;;;;4974819;28;20496;-83
2021/04/25 13:23:08;;;;;;;5.70;4.13;;;22.70;24.10;;;;;;4974460;28;20422;-83
2021/04/25 13:25:37;;;;;;;4.37;4.07;;;22.40;24.00;;;;;;4974476;28;20444;-83
2021/04/25 13:28:08;;;;;;;4.93;4.63;;;23.10;25.10;;;;;;4956644;28;20476;-84
2021/04/25 13:30:36;;;;;;;5.83;5.27;;;20.60;24.60;;;;;;4974564;28;20409;-84
2021/04/25 13:33:03;;;;;;;5.80;5.30;;;19.40;24.70;;;;;;4975416;28;20417;-83
2021/04/25 13:35:29;;;;;;;22.63;19.07;;;20.20;25.10;;;;;;4974761;28;20461;-82
2021/04/25 13:37:56;;;;;;;5.13;4.83;;;20.80;25.20;;;;;;4974344;28;20540;-83
2021/04/25 13:40:24;;;;;;;15.93;12.60;;;21.20;24.70;;;;;;4974677;28;20287;-83
2021/04/25 13:42:49;;;;;;;4.67;4.27;;;20.70;24.90;;;;;;4956823;28;20417;-83
2021/04/25 13:45:15;;;;;;;9.37;8.53;;;20.10;24.90;;;;;;4973962;28;20419;-83
2021/04/25 13:47:41;;;;;;;7.03;6.33;;;20.60;25.20;;;;;;4973745;28;20300;-83